sensor_id;sensor_type;location;lat;lon;timestamp;P1;durP1;ratioP1;P2;durP2;ratioP2
68050;SDS011;54839;51.364;7.246;2022-07-06T00:01:23;2.63;;;1.80;;
68050;SDS011;54839;51.364;7.246;2022-07-06T00:03:49;8.20;;;2.57;;
68050;SDS011;54839;51.364;7.246;2022-07-06T00:06:14;2.30;;;2.10;;
68050;SDS011;54839;51.364;7.246;2022-07-06T00:08:42;6.23;;;2.53;;
68050;SDS011;54839;51.364;7.246;2022-07-06T00:11:08;2.70;;;2.10;;
68050;SDS011;54839;51.364;7.246;2022-07-06T00:13:33;3.63;;;2.57;;
68050;SDS011;54839;51.364;7.246;2022-07-06T00:15:59;9.50;;;3.90;;
68050;SDS011;54839;51.364;7.246;2022-07-06T00:18:24;3.53;;;2.27;;
68050;SDS011;54839;51.364;7.246;2022-07-06T00:20:50;5.07;;;2.63;;
68050;SDS011;54839;51.364;7.246;2022-07-06T00:23:16;1.60;;;1.50;;
68050;SDS011;54839;51.364;7.246;2022-07-06T00:25:41;2.50;;;2.30;;
68050;SDS011;54839;51.364;7.246;2022-07-06T00:28:07;4.43;;;2.20;;
68050;SDS011;54839;51.364;7.246;2022-07-06T00:30:32;3.43;;;2.13;;
68050;SDS011;54839;51.364;7.246;2022-07-06T00:32:58;4.13;;;2.50;;
68050;SDS011;54839;51.364;7.246;2022-07-06T00:35:24;4.13;;;2.43;;
68050;SDS011;54839;51.364;7.246;2022-07-06T00:37:51;2.20;;;2.00;;
68050;SDS011;54839;51.364;7.246;2022-07-06T00:40:17;5.90;;;2.07;;
68050;SDS011;54839;51.364;7.246;2022-07-06T00:42:46;2.33;;;2.13;;
68050;SDS011;54839;51.364;7.246;2022-07-06T00:45:13;2.50;;;2.10;;
68050;SDS011;54839;51.364;7.246;2022-07-06T00:47:40;2.63;;;1.83;;
68050;SDS011;54839;51.364;7.246;2022-07-06T00:50:08;2.37;;;2.10;;
68050;SDS011;54839;51.364;7.246;2022-07-06T00:52:47;2.57;;;2.37;;
68050;SDS011;54839;51.364;7.246;2022-07-06T00:55:15;3.00;;;2.00;;
68050;SDS011;54839;51.364;7.246;2022-07-06T00:57:43;3.23;;;2.20;;
68050;SDS011;54839;51.364;7.246;2022-07-06T01:00:10;4.27;;;2.27;;
68050;SDS011;54839;51.364;7.246;2022-07-06T01:02:37;2.60;;;2.10;;
68050;SDS011;54839;51.364;7.246;2022-07-06T01:05:06;3.20;;;1.87;;
68050;SDS011;54839;51.364;7.246;2022-07-06T01:07:33;3.70;;;2.30;;
68050;SDS011;54839;51.364;7.246;2022-07-06T01:10:01;4.30;;;1.70;;
68050;SDS011;54839;51.364;7.246;2022-07-06T01:12:28;2.47;;;2.20;;
68050;SDS011;54839;51.364;7.246;2022-07-06T01:14:54;3.43;;;2.70;;
68050;SDS011;54839;51.364;7.246;2022-07-06T01:17:20;4.17;;;2.33;;
68050;SDS011;54839;51.364;7.246;2022-07-06T01:19:46;3.80;;;2.30;;
68050;SDS011;54839;51.364;7.246;2022-07-06T01:22:12;2.10;;;1.90;;
68050;SDS011;54839;51.364;7.246;2022-07-06T01:24:38;3.07;;;2.73;;
68050;SDS011;54839;51.364;7.246;2022-07-06T01:27:04;2.60;;;2.40;;
68050;SDS011;54839;51.364;7.246;2022-07-06T01:29:30;7.13;;;2.10;;
68050;SDS011;54839;51.364;7.246;2022-07-06T01:31:57;4.27;;;2.37;;
68050;SDS011;54839;51.364;7.246;2022-07-06T01:34:22;4.63;;;1.90;;
68050;SDS011;54839;51.364;7.246;2022-07-06T01:36:48;8.03;;;2.60;;
68050;SDS011;54839;51.364;7.246;2022-07-06T01:39:13;3.30;;;2.00;;
68050;SDS011;54839;51.364;7.246;2022-07-06T01:41:39;4.07;;;2.30;;
68050;SDS011;54839;51.364;7.246;2022-07-06T01:44:04;2.17;;;1.97;;
68050;SDS011;54839;51.364;7.246;2022-07-06T01:46:30;2.30;;;1.90;;
68050;SDS011;54839;51.364;7.246;2022-07-06T01:48:56;3.30;;;2.00;;
68050;SDS011;54839;51.364;7.246;2022-07-06T01:51:22;3.13;;;1.77;;
68050;SDS011;54839;51.364;7.246;2022-07-06T01:53:49;2.00;;;1.90;;
68050;SDS011;54839;51.364;7.246;2022-07-06T01:56:15;2.50;;;2.30;;
68050;SDS011;54839;51.364;7.246;2022-07-06T01:58:42;1.73;;;1.63;;
68050;SDS011;54839;51.364;7.246;2022-07-06T02:01:12;2.67;;;2.47;;
68050;SDS011;54839;51.364;7.246;2022-07-06T02:03:42;1.33;;;1.23;;
68050;SDS011;54839;51.364;7.246;2022-07-06T02:06:08;2.07;;;1.70;;
68050;SDS011;54839;51.364;7.246;2022-07-06T02:08:34;4.90;;;1.77;;
68050;SDS011;54839;51.364;7.246;2022-07-06T02:11:01;3.50;;;2.07;;
68050;SDS011;54839;51.364;7.246;2022-07-06T02:13:31;5.13;;;2.20;;
68050;SDS011;54839;51.364;7.246;2022-07-06T02:15:56;2.80;;;1.83;;
68050;SDS011;54839;51.364;7.246;2022-07-06T02:18:22;3.63;;;2.10;;
68050;SDS011;54839;51.364;7.246;2022-07-06T02:20:47;3.27;;;1.80;;
68050;SDS011;54839;51.364;7.246;2022-07-06T02:23:13;4.83;;;2.60;;
68050;SDS011;54839;51.364;7.246;2022-07-06T02:25:38;3.43;;;2.00;;
68050;SDS011;54839;51.364;7.246;2022-07-06T02:28:04;2.50;;;1.70;;
68050;SDS011;54839;51.364;7.246;2022-07-06T02:30:30;9.13;;;2.70;;
68050;SDS011;54839;51.364;7.246;2022-07-06T02:33:03;6.37;;;2.53;;
68050;SDS011;54839;51.364;7.246;2022-07-06T02:35:31;3.87;;;3.33;;
68050;SDS011;54839;51.364;7.246;2022-07-06T02:37:59;4.20;;;3.13;;
68050;SDS011;54839;51.364;7.246;2022-07-06T02:40:28;3.00;;;2.30;;
68050;SDS011;54839;51.364;7.246;2022-07-06T02:42:54;8.60;;;2.80;;
68050;SDS011;54839;51.364;7.246;2022-07-06T02:45:19;2.47;;;2.27;;
68050;SDS011;54839;51.364;7.246;2022-07-06T02:47:47;3.00;;;2.20;;
68050;SDS011;54839;51.364;7.246;2022-07-06T02:50:15;2.50;;;2.23;;
68050;SDS011;54839;51.364;7.246;2022-07-06T02:52:44;4.37;;;2.73;;
68050;SDS011;54839;51.364;7.246;2022-07-06T02:55:13;3.70;;;2.93;;
68050;SDS011;54839;51.364;7.246;2022-07-06T02:57:41;2.60;;;2.40;;
68050;SDS011;54839;51.364;7.246;2022-07-06T03:00:10;2.67;;;2.23;;
68050;SDS011;54839;51.364;7.246;2022-07-06T03:02:41;5.03;;;2.63;;
68050;SDS011;54839;51.364;7.246;2022-07-06T03:05:09;3.13;;;2.40;;
68050;SDS011;54839;51.364;7.246;2022-07-06T03:07:35;6.60;;;2.83;;
68050;SDS011;54839;51.364;7.246;2022-07-06T03:10:01;3.43;;;2.00;;
68050;SDS011;54839;51.364;7.246;2022-07-06T03:12:27;3.60;;;2.07;;
68050;SDS011;54839;51.364;7.246;2022-07-06T03:14:53;2.70;;;2.10;;
68050;SDS011;54839;51.364;7.246;2022-07-06T03:17:18;6.67;;;2.30;;
68050;SDS011;54839;51.364;7.246;2022-07-06T03:19:44;2.33;;;2.23;;
68050;SDS011;54839;51.364;7.246;2022-07-06T03:22:12;2.80;;;2.60;;
68050;SDS011;54839;51.364;7.246;2022-07-06T03:24:38;7.20;;;2.23;;
68050;SDS011;54839;51.364;7.246;2022-07-06T03:27:04;2.87;;;2.00;;
68050;SDS011;54839;51.364;7.246;2022-07-06T03:29:30;9.27;;;2.80;;
68050;SDS011;54839;51.364;7.246;2022-07-06T03:31:55;4.00;;;3.00;;
68050;SDS011;54839;51.364;7.246;2022-07-06T03:34:24;4.40;;;2.50;;
68050;SDS011;54839;51.364;7.246;2022-07-06T03:36:53;3.70;;;2.20;;
68050;SDS011;54839;51.364;7.246;2022-07-06T03:39:19;3.03;;;2.20;;
68050;SDS011;54839;51.364;7.246;2022-07-06T03:41:47;3.60;;;2.40;;
68050;SDS011;54839;51.364;7.246;2022-07-06T03:44:15;4.30;;;2.67;;
68050;SDS011;54839;51.364;7.246;2022-07-06T03:46:43;3.77;;;2.67;;
68050;SDS011;54839;51.364;7.246;2022-07-06T03:49:20;6.30;;;2.60;;
68050;SDS011;54839;51.364;7.246;2022-07-06T03:51:51;3.63;;;2.60;;
68050;SDS011;54839;51.364;7.246;2022-07-06T03:54:23;7.20;;;2.80;;
68050;SDS011;54839;51.364;7.246;2022-07-06T03:56:53;6.80;;;3.20;;
68050;SDS011;54839;51.364;7.246;2022-07-06T03:59:19;7.53;;;3.30;;
68050;SDS011;54839;51.364;7.246;2022-07-06T04:01:52;4.10;;;2.83;;
68050;SDS011;54839;51.364;7.246;2022-07-06T04:04:20;4.80;;;2.97;;
68050;SDS011;54839;51.364;7.246;2022-07-06T04:06:51;8.20;;;4.07;;
68050;SDS011;54839;51.364;7.246;2022-07-06T04:09:17;7.33;;;4.30;;
68050;SDS011;54839;51.364;7.246;2022-07-06T04:11:43;9.13;;;4.00;;
68050;SDS011;54839;51.364;7.246;2022-07-06T04:14:08;10.47;;;3.93;;
68050;SDS011;54839;51.364;7.246;2022-07-06T04:16:37;10.70;;;5.10;;
68050;SDS011;54839;51.364;7.246;2022-07-06T04:19:03;10.53;;;4.57;;
68050;SDS011;54839;51.364;7.246;2022-07-06T04:21:28;10.57;;;5.20;;
68050;SDS011;54839;51.364;7.246;2022-07-06T04:23:54;10.90;;;4.47;;
68050;SDS011;54839;51.364;7.246;2022-07-06T04:26:22;11.03;;;5.50;;
68050;SDS011;54839;51.364;7.246;2022-07-06T04:28:48;12.47;;;5.70;;
68050;SDS011;54839;51.364;7.246;2022-07-06T04:31:14;13.60;;;5.17;;
68050;SDS011;54839;51.364;7.246;2022-07-06T04:33:42;9.43;;;5.47;;
68050;SDS011;54839;51.364;7.246;2022-07-06T04:36:08;10.27;;;5.73;;
68050;SDS011;54839;51.364;7.246;2022-07-06T04:38:35;13.83;;;4.73;;
68050;SDS011;54839;51.364;7.246;2022-07-06T04:41:00;6.87;;;4.80;;
68050;SDS011;54839;51.364;7.246;2022-07-06T04:43:26;13.87;;;5.30;;
68050;SDS011;54839;51.364;7.246;2022-07-06T04:45:52;11.13;;;4.63;;
68050;SDS011;54839;51.364;7.246;2022-07-06T04:48:17;10.40;;;5.23;;
68050;SDS011;54839;51.364;7.246;2022-07-06T04:50:46;11.93;;;5.57;;
68050;SDS011;54839;51.364;7.246;2022-07-06T04:53:12;7.07;;;4.13;;
68050;SDS011;54839;51.364;7.246;2022-07-06T04:55:40;8.20;;;5.10;;
68050;SDS011;54839;51.364;7.246;2022-07-06T04:58:06;10.60;;;4.87;;
68050;SDS011;54839;51.364;7.246;2022-07-06T05:00:36;8.17;;;4.90;;
68050;SDS011;54839;51.364;7.246;2022-07-06T05:03:04;13.53;;;4.70;;
68050;SDS011;54839;51.364;7.246;2022-07-06T05:05:37;8.80;;;4.67;;
68050;SDS011;54839;51.364;7.246;2022-07-06T05:08:06;7.87;;;5.00;;
68050;SDS011;54839;51.364;7.246;2022-07-06T05:10:34;9.57;;;4.73;;
68050;SDS011;54839;51.364;7.246;2022-07-06T05:13:05;8.60;;;5.20;;
68050;SDS011;54839;51.364;7.246;2022-07-06T05:15:33;7.30;;;4.57;;
68050;SDS011;54839;51.364;7.246;2022-07-06T05:18:07;14.37;;;4.23;;
68050;SDS011;54839;51.364;7.246;2022-07-06T05:20:33;13.37;;;4.80;;
68050;SDS011;54839;51.364;7.246;2022-07-06T05:23:03;9.23;;;3.90;;
68050;SDS011;54839;51.364;7.246;2022-07-06T05:25:31;8.87;;;4.40;;
68050;SDS011;54839;51.364;7.246;2022-07-06T05:27:58;5.90;;;3.27;;
68050;SDS011;54839;51.364;7.246;2022-07-06T05:30:26;10.60;;;4.63;;
68050;SDS011;54839;51.364;7.246;2022-07-06T05:32:52;8.30;;;4.40;;
68050;SDS011;54839;51.364;7.246;2022-07-06T05:35:17;10.60;;;4.77;;
68050;SDS011;54839;51.364;7.246;2022-07-06T05:37:43;8.17;;;4.57;;
68050;SDS011;54839;51.364;7.246;2022-07-06T05:40:11;6.90;;;4.07;;
68050;SDS011;54839;51.364;7.246;2022-07-06T05:42:37;8.77;;;4.77;;
68050;SDS011;54839;51.364;7.246;2022-07-06T05:45:05;8.27;;;4.30;;
68050;SDS011;54839;51.364;7.246;2022-07-06T05:47:31;12.07;;;4.60;;
68050;SDS011;54839;51.364;7.246;2022-07-06T05:50:19;8.07;;;4.17;;
68050;SDS011;54839;51.364;7.246;2022-07-06T05:52:56;5.20;;;4.80;;
68050;SDS011;54839;51.364;7.246;2022-07-06T05:55:24;7.17;;;3.87;;
68050;SDS011;54839;51.364;7.246;2022-07-06T05:57:51;7.10;;;4.60;;
68050;SDS011;54839;51.364;7.246;2022-07-06T06:00:19;5.60;;;4.20;;
68050;SDS011;54839;51.364;7.246;2022-07-06T06:02:46;7.43;;;4.30;;
68050;SDS011;54839;51.364;7.246;2022-07-06T06:05:13;6.27;;;4.40;;
68050;SDS011;54839;51.364;7.246;2022-07-06T06:07:39;6.53;;;3.40;;
68050;SDS011;54839;51.364;7.246;2022-07-06T06:10:06;9.97;;;3.67;;
68050;SDS011;54839;51.364;7.246;2022-07-06T06:12:36;6.90;;;3.90;;
68050;SDS011;54839;51.364;7.246;2022-07-06T06:15:05;7.83;;;3.90;;
68050;SDS011;54839;51.364;7.246;2022-07-06T06:17:34;8.57;;;4.70;;
68050;SDS011;54839;51.364;7.246;2022-07-06T06:20:07;4.87;;;3.50;;
68050;SDS011;54839;51.364;7.246;2022-07-06T06:22:58;11.53;;;4.00;;
68050;SDS011;54839;51.364;7.246;2022-07-06T06:25:34;5.67;;;2.97;;
68050;SDS011;54839;51.364;7.246;2022-07-06T06:28:06;9.27;;;3.83;;
68050;SDS011;54839;51.364;7.246;2022-07-06T06:30:33;8.33;;;3.10;;
68050;SDS011;54839;51.364;7.246;2022-07-06T06:33:10;10.50;;;3.13;;
68050;SDS011;54839;51.364;7.246;2022-07-06T06:35:46;4.87;;;2.90;;
68050;SDS011;54839;51.364;7.246;2022-07-06T06:38:20;7.60;;;2.70;;
68050;SDS011;54839;51.364;7.246;2022-07-06T06:40:50;5.77;;;2.87;;
68050;SDS011;54839;51.364;7.246;2022-07-06T06:43:17;3.73;;;2.00;;
68050;SDS011;54839;51.364;7.246;2022-07-06T06:45:43;5.87;;;2.03;;
68050;SDS011;54839;51.364;7.246;2022-07-06T06:48:11;5.10;;;2.23;;
68050;SDS011;54839;51.364;7.246;2022-07-06T06:50:37;5.10;;;2.17;;
68050;SDS011;54839;51.364;7.246;2022-07-06T06:53:03;8.20;;;2.67;;
68050;SDS011;54839;51.364;7.246;2022-07-06T06:55:31;4.70;;;1.70;;
68050;SDS011;54839;51.364;7.246;2022-07-06T06:57:57;11.40;;;2.57;;
68050;SDS011;54839;51.364;7.246;2022-07-06T07:00:22;5.53;;;1.90;;
68050;SDS011;54839;51.364;7.246;2022-07-06T07:02:51;1.90;;;1.80;;
68050;SDS011;54839;51.364;7.246;2022-07-06T07:05:19;3.13;;;1.47;;
68050;SDS011;54839;51.364;7.246;2022-07-06T07:07:45;3.97;;;2.30;;
68050;SDS011;54839;51.364;7.246;2022-07-06T07:10:11;2.80;;;1.40;;
68050;SDS011;54839;51.364;7.246;2022-07-06T07:12:48;4.73;;;1.80;;
68050;SDS011;54839;51.364;7.246;2022-07-06T07:15:15;7.73;;;3.00;;
68050;SDS011;54839;51.364;7.246;2022-07-06T07:17:41;6.43;;;2.27;;
68050;SDS011;54839;51.364;7.246;2022-07-06T07:20:07;2.10;;;1.83;;
68050;SDS011;54839;51.364;7.246;2022-07-06T07:22:36;2.87;;;1.77;;
68050;SDS011;54839;51.364;7.246;2022-07-06T07:25:02;3.60;;;2.27;;
68050;SDS011;54839;51.364;7.246;2022-07-06T07:27:31;5.73;;;2.13;;
68050;SDS011;54839;51.364;7.246;2022-07-06T07:29:56;6.00;;;2.00;;
68050;SDS011;54839;51.364;7.246;2022-07-06T07:32:22;6.83;;;1.30;;
68050;SDS011;54839;51.364;7.246;2022-07-06T07:34:53;4.93;;;1.80;;
68050;SDS011;54839;51.364;7.246;2022-07-06T07:37:21;3.13;;;1.70;;
68050;SDS011;54839;51.364;7.246;2022-07-06T07:39:49;5.33;;;2.30;;
68050;SDS011;54839;51.364;7.246;2022-07-06T07:42:16;2.47;;;1.53;;
68050;SDS011;54839;51.364;7.246;2022-07-06T07:44:42;3.43;;;1.97;;
68050;SDS011;54839;51.364;7.246;2022-07-06T07:47:11;6.63;;;2.80;;
68050;SDS011;54839;51.364;7.246;2022-07-06T07:49:42;3.40;;;2.00;;
68050;SDS011;54839;51.364;7.246;2022-07-06T07:52:08;4.07;;;1.43;;
68050;SDS011;54839;51.364;7.246;2022-07-06T07:54:34;10.50;;;1.27;;
68050;SDS011;54839;51.364;7.246;2022-07-06T07:57:00;2.70;;;1.20;;
68050;SDS011;54839;51.364;7.246;2022-07-06T07:59:26;5.10;;;1.60;;
68050;SDS011;54839;51.364;7.246;2022-07-06T08:01:52;5.93;;;1.43;;
68050;SDS011;54839;51.364;7.246;2022-07-06T08:04:23;2.70;;;0.90;;
68050;SDS011;54839;51.364;7.246;2022-07-06T08:06:49;6.73;;;1.57;;
68050;SDS011;54839;51.364;7.246;2022-07-06T08:09:17;3.17;;;1.03;;
68050;SDS011;54839;51.364;7.246;2022-07-06T08:11:46;4.43;;;1.50;;
68050;SDS011;54839;51.364;7.246;2022-07-06T08:14:15;2.60;;;1.23;;
68050;SDS011;54839;51.364;7.246;2022-07-06T08:16:42;3.17;;;1.33;;
68050;SDS011;54839;51.364;7.246;2022-07-06T08:19:11;9.53;;;1.00;;
68050;SDS011;54839;51.364;7.246;2022-07-06T08:21:45;3.37;;;1.40;;
68050;SDS011;54839;51.364;7.246;2022-07-06T08:24:14;7.77;;;1.53;;
68050;SDS011;54839;51.364;7.246;2022-07-06T08:26:40;2.90;;;1.30;;
68050;SDS011;54839;51.364;7.246;2022-07-06T08:29:06;6.17;;;1.77;;
68050;SDS011;54839;51.364;7.246;2022-07-06T08:31:32;5.23;;;1.17;;
68050;SDS011;54839;51.364;7.246;2022-07-06T08:34:02;3.40;;;0.90;;
68050;SDS011;54839;51.364;7.246;2022-07-06T08:36:34;3.37;;;1.20;;
68050;SDS011;54839;51.364;7.246;2022-07-06T08:39:00;3.13;;;0.77;;
68050;SDS011;54839;51.364;7.246;2022-07-06T08:41:28;3.63;;;1.50;;
68050;SDS011;54839;51.364;7.246;2022-07-06T08:43:56;1.93;;;0.80;;
68050;SDS011;54839;51.364;7.246;2022-07-06T08:46:25;4.90;;;1.07;;
68050;SDS011;54839;51.364;7.246;2022-07-06T08:48:57;2.77;;;1.00;;
68050;SDS011;54839;51.364;7.246;2022-07-06T08:51:24;5.57;;;1.40;;
68050;SDS011;54839;51.364;7.246;2022-07-06T08:53:50;3.83;;;1.23;;
68050;SDS011;54839;51.364;7.246;2022-07-06T08:56:18;2.33;;;1.13;;
68050;SDS011;54839;51.364;7.246;2022-07-06T08:58:44;3.13;;;1.10;;
68050;SDS011;54839;51.364;7.246;2022-07-06T09:01:10;2.70;;;1.03;;
68050;SDS011;54839;51.364;7.246;2022-07-06T09:03:38;4.00;;;1.27;;
68050;SDS011;54839;51.364;7.246;2022-07-06T09:06:08;5.33;;;1.33;;
68050;SDS011;54839;51.364;7.246;2022-07-06T09:08:35;5.77;;;1.43;;
68050;SDS011;54839;51.364;7.246;2022-07-06T09:11:04;4.73;;;1.27;;
68050;SDS011;54839;51.364;7.246;2022-07-06T09:13:31;4.20;;;2.20;;
68050;SDS011;54839;51.364;7.246;2022-07-06T09:16:12;1.30;;;1.20;;
68050;SDS011;54839;51.364;7.246;2022-07-06T09:18:39;2.37;;;0.93;;
68050;SDS011;54839;51.364;7.246;2022-07-06T09:21:08;2.80;;;1.30;;
68050;SDS011;54839;51.364;7.246;2022-07-06T09:23:39;2.17;;;1.60;;
68050;SDS011;54839;51.364;7.246;2022-07-06T09:26:07;4.20;;;1.63;;
68050;SDS011;54839;51.364;7.246;2022-07-06T09:28:42;4.93;;;1.93;;
68050;SDS011;54839;51.364;7.246;2022-07-06T09:31:08;5.40;;;2.20;;
68050;SDS011;54839;51.364;7.246;2022-07-06T09:33:35;3.10;;;1.40;;
68050;SDS011;54839;51.364;7.246;2022-07-06T09:36:03;3.80;;;1.60;;
68050;SDS011;54839;51.364;7.246;2022-07-06T09:38:31;3.23;;;1.10;;
68050;SDS011;54839;51.364;7.246;2022-07-06T09:40:57;4.40;;;1.23;;
68050;SDS011;54839;51.364;7.246;2022-07-06T09:43:32;3.07;;;0.80;;
68050;SDS011;54839;51.364;7.246;2022-07-06T09:45:59;4.00;;;1.00;;
68050;SDS011;54839;51.364;7.246;2022-07-06T09:48:26;4.77;;;1.27;;
68050;SDS011;54839;51.364;7.246;2022-07-06T09:53:20;2.37;;;1.20;;
68050;SDS011;54839;51.364;7.246;2022-07-06T09:55:51;4.83;;;1.43;;
68050;SDS011;54839;51.364;7.246;2022-07-06T09:58:23;2.93;;;0.83;;
68050;SDS011;54839;51.364;7.246;2022-07-06T10:00:53;0.83;;;0.80;;
68050;SDS011;54839;51.364;7.246;2022-07-06T10:03:18;2.57;;;1.40;;
68050;SDS011;54839;51.364;7.246;2022-07-06T10:05:49;8.43;;;1.80;;
68050;SDS011;54839;51.364;7.246;2022-07-06T10:08:17;2.87;;;2.10;;
68050;SDS011;54839;51.364;7.246;2022-07-06T10:10:53;4.67;;;2.63;;
68050;SDS011;54839;51.364;7.246;2022-07-06T10:13:22;7.03;;;2.57;;
68050;SDS011;54839;51.364;7.246;2022-07-06T10:15:52;2.70;;;1.63;;
68050;SDS011;54839;51.364;7.246;2022-07-06T10:18:29;5.00;;;1.80;;
68050;SDS011;54839;51.364;7.246;2022-07-06T10:20:55;4.40;;;1.70;;
68050;SDS011;54839;51.364;7.246;2022-07-06T10:23:21;10.60;;;3.10;;
68050;SDS011;54839;51.364;7.246;2022-07-06T10:25:52;4.00;;;2.10;;
68050;SDS011;54839;51.364;7.246;2022-07-06T10:28:27;2.60;;;2.13;;
68050;SDS011;54839;51.364;7.246;2022-07-06T10:30:53;3.57;;;1.80;;
68050;SDS011;54839;51.364;7.246;2022-07-06T10:33:22;3.37;;;1.93;;
68050;SDS011;54839;51.364;7.246;2022-07-06T10:35:48;5.50;;;2.20;;
68050;SDS011;54839;51.364;7.246;2022-07-06T10:38:15;5.07;;;2.07;;
68050;SDS011;54839;51.364;7.246;2022-07-06T10:40:44;2.00;;;1.67;;
68050;SDS011;54839;51.364;7.246;2022-07-06T10:43:37;6.93;;;1.90;;
68050;SDS011;54839;51.364;7.246;2022-07-06T10:46:08;3.80;;;2.30;;
68050;SDS011;54839;51.364;7.246;2022-07-06T10:48:48;5.63;;;4.33;;
68050;SDS011;54839;51.364;7.246;2022-07-06T10:51:41;3.17;;;2.83;;
68050;SDS011;54839;51.364;7.246;2022-07-06T10:54:07;15.80;;;2.13;;
68050;SDS011;54839;51.364;7.246;2022-07-06T10:56:40;3.67;;;1.70;;
68050;SDS011;54839;51.364;7.246;2022-07-06T10:59:21;2.80;;;1.63;;
68050;SDS011;54839;51.364;7.246;2022-07-06T11:02:15;3.03;;;1.33;;
68050;SDS011;54839;51.364;7.246;2022-07-06T11:04:43;7.97;;;1.60;;
68050;SDS011;54839;51.364;7.246;2022-07-06T11:07:11;2.57;;;1.50;;
68050;SDS011;54839;51.364;7.246;2022-07-06T11:09:45;1.70;;;1.00;;
68050;SDS011;54839;51.364;7.246;2022-07-06T11:12:30;2.60;;;1.23;;
68050;SDS011;54839;51.364;7.246;2022-07-06T11:15:03;2.30;;;1.00;;
68050;SDS011;54839;51.364;7.246;2022-07-06T11:17:29;2.70;;;1.70;;
68050;SDS011;54839;51.364;7.246;2022-07-06T11:22:27;3.97;;;1.33;;
68050;SDS011;54839;51.364;7.246;2022-07-06T11:25:04;2.17;;;1.70;;
68050;SDS011;54839;51.364;7.246;2022-07-06T11:27:34;6.07;;;1.20;;
68050;SDS011;54839;51.364;7.246;2022-07-06T11:30:00;3.73;;;1.17;;
68050;SDS011;54839;51.364;7.246;2022-07-06T11:32:34;3.43;;;1.30;;
68050;SDS011;54839;51.364;7.246;2022-07-06T11:35:00;8.23;;;6.43;;
68050;SDS011;54839;51.364;7.246;2022-07-06T11:37:29;3.40;;;1.10;;
68050;SDS011;54839;51.364;7.246;2022-07-06T11:39:58;3.33;;;1.40;;
68050;SDS011;54839;51.364;7.246;2022-07-06T11:42:32;4.13;;;1.20;;
68050;SDS011;54839;51.364;7.246;2022-07-06T11:45:01;2.20;;;1.50;;
68050;SDS011;54839;51.364;7.246;2022-07-06T11:47:30;2.30;;;1.10;;
68050;SDS011;54839;51.364;7.246;2022-07-06T11:49:59;2.77;;;1.47;;
68050;SDS011;54839;51.364;7.246;2022-07-06T11:52:25;3.10;;;1.20;;
68050;SDS011;54839;51.364;7.246;2022-07-06T11:54:57;2.00;;;1.90;;
68050;SDS011;54839;51.364;7.246;2022-07-06T11:57:29;2.17;;;1.50;;
68050;SDS011;54839;51.364;7.246;2022-07-06T12:00:00;4.03;;;1.40;;
68050;SDS011;54839;51.364;7.246;2022-07-06T12:02:32;2.60;;;1.00;;
68050;SDS011;54839;51.364;7.246;2022-07-06T12:04:58;2.57;;;0.90;;
68050;SDS011;54839;51.364;7.246;2022-07-06T12:07:25;2.33;;;1.10;;
68050;SDS011;54839;51.364;7.246;2022-07-06T12:09:59;6.93;;;1.00;;
68050;SDS011;54839;51.364;7.246;2022-07-06T12:12:33;5.27;;;1.40;;
68050;SDS011;54839;51.364;7.246;2022-07-06T12:15:06;1.40;;;1.07;;
68050;SDS011;54839;51.364;7.246;2022-07-06T12:17:35;1.93;;;1.10;;
68050;SDS011;54839;51.364;7.246;2022-07-06T12:20:13;5.60;;;1.53;;
68050;SDS011;54839;51.364;7.246;2022-07-06T12:22:44;2.13;;;1.23;;
68050;SDS011;54839;51.364;7.246;2022-07-06T12:28:01;4.67;;;1.50;;
68050;SDS011;54839;51.364;7.246;2022-07-06T12:30:27;3.97;;;1.23;;
68050;SDS011;54839;51.364;7.246;2022-07-06T12:33:13;2.10;;;1.20;;
68050;SDS011;54839;51.364;7.246;2022-07-06T12:35:43;2.40;;;1.43;;
68050;SDS011;54839;51.364;7.246;2022-07-06T12:38:09;3.70;;;1.40;;
68050;SDS011;54839;51.364;7.246;2022-07-06T12:40:38;5.57;;;1.80;;
68050;SDS011;54839;51.364;7.246;2022-07-06T12:43:04;3.57;;;1.50;;
68050;SDS011;54839;51.364;7.246;2022-07-06T12:45:33;4.10;;;1.80;;
68050;SDS011;54839;51.364;7.246;2022-07-06T12:48:00;3.97;;;1.33;;
68050;SDS011;54839;51.364;7.246;2022-07-06T12:50:31;3.23;;;1.23;;
68050;SDS011;54839;51.364;7.246;2022-07-06T12:53:22;1.30;;;1.20;;
68050;SDS011;54839;51.364;7.246;2022-07-06T12:58:59;3.60;;;0.97;;
68050;SDS011;54839;51.364;7.246;2022-07-06T13:01:31;2.57;;;0.80;;
68050;SDS011;54839;51.364;7.246;2022-07-06T13:03:59;1.93;;;0.80;;
68050;SDS011;54839;51.364;7.246;2022-07-06T13:06:31;2.20;;;1.23;;
68050;SDS011;54839;51.364;7.246;2022-07-06T13:08:59;2.83;;;1.10;;
68050;SDS011;54839;51.364;7.246;2022-07-06T13:11:27;1.17;;;0.80;;
68050;SDS011;54839;51.364;7.246;2022-07-06T13:13:55;2.27;;;1.20;;
68050;SDS011;54839;51.364;7.246;2022-07-06T13:16:29;3.80;;;1.03;;
68050;SDS011;54839;51.364;7.246;2022-07-06T13:18:59;3.00;;;0.97;;
68050;SDS011;54839;51.364;7.246;2022-07-06T13:21:28;1.00;;;0.70;;
68050;SDS011;54839;51.364;7.246;2022-07-06T13:23:54;2.90;;;1.27;;
68050;SDS011;54839;51.364;7.246;2022-07-06T13:26:20;2.50;;;1.57;;
68050;SDS011;54839;51.364;7.246;2022-07-06T13:28:53;7.20;;;1.30;;
68050;SDS011;54839;51.364;7.246;2022-07-06T13:31:19;2.03;;;1.13;;
68050;SDS011;54839;51.364;7.246;2022-07-06T13:33:49;2.70;;;1.20;;
68050;SDS011;54839;51.364;7.246;2022-07-06T13:36:15;4.20;;;1.07;;
68050;SDS011;54839;51.364;7.246;2022-07-06T13:38:48;3.50;;;1.10;;
68050;SDS011;54839;51.364;7.246;2022-07-06T13:41:14;1.20;;;1.00;;
68050;SDS011;54839;51.364;7.246;2022-07-06T13:43:40;2.60;;;1.23;;
68050;SDS011;54839;51.364;7.246;2022-07-06T13:46:06;2.20;;;1.10;;
68050;SDS011;54839;51.364;7.246;2022-07-06T13:48:33;2.40;;;1.37;;
68050;SDS011;54839;51.364;7.246;2022-07-06T13:51:04;2.00;;;1.10;;
68050;SDS011;54839;51.364;7.246;2022-07-06T13:53:30;7.53;;;1.60;;
68050;SDS011;54839;51.364;7.246;2022-07-06T13:55:59;4.23;;;1.23;;
68050;SDS011;54839;51.364;7.246;2022-07-06T13:58:25;7.27;;;1.70;;
68050;SDS011;54839;51.364;7.246;2022-07-06T14:00:51;4.63;;;2.20;;
68050;SDS011;54839;51.364;7.246;2022-07-06T14:03:26;3.60;;;1.40;;
68050;SDS011;54839;51.364;7.246;2022-07-06T14:06:03;2.50;;;1.17;;
68050;SDS011;54839;51.364;7.246;2022-07-06T14:08:33;3.03;;;1.13;;
68050;SDS011;54839;51.364;7.246;2022-07-06T14:11:03;2.27;;;1.30;;
68050;SDS011;54839;51.364;7.246;2022-07-06T14:13:39;2.10;;;0.80;;
68050;SDS011;54839;51.364;7.246;2022-07-06T14:16:09;1.90;;;1.37;;
68050;SDS011;54839;51.364;7.246;2022-07-06T14:18:35;2.70;;;1.33;;
68050;SDS011;54839;51.364;7.246;2022-07-06T14:21:00;1.87;;;1.07;;
68050;SDS011;54839;51.364;7.246;2022-07-06T14:23:28;3.83;;;1.33;;
68050;SDS011;54839;51.364;7.246;2022-07-06T14:25:58;2.83;;;0.90;;
68050;SDS011;54839;51.364;7.246;2022-07-06T14:28:24;2.20;;;1.00;;
68050;SDS011;54839;51.364;7.246;2022-07-06T14:30:52;1.37;;;0.87;;
68050;SDS011;54839;51.364;7.246;2022-07-06T14:33:20;1.27;;;0.70;;
68050;SDS011;54839;51.364;7.246;2022-07-06T14:35:47;1.70;;;0.80;;
68050;SDS011;54839;51.364;7.246;2022-07-06T14:38:17;1.67;;;1.07;;
68050;SDS011;54839;51.364;7.246;2022-07-06T14:40:46;0.70;;;0.70;;
68050;SDS011;54839;51.364;7.246;2022-07-06T14:43:14;2.60;;;1.10;;
68050;SDS011;54839;51.364;7.246;2022-07-06T14:45:43;2.57;;;0.90;;
68050;SDS011;54839;51.364;7.246;2022-07-06T14:48:12;1.33;;;0.83;;
68050;SDS011;54839;51.364;7.246;2022-07-06T14:50:49;2.20;;;1.30;;
68050;SDS011;54839;51.364;7.246;2022-07-06T14:53:14;2.63;;;0.73;;
68050;SDS011;54839;51.364;7.246;2022-07-06T14:55:49;6.40;;;1.27;;
68050;SDS011;54839;51.364;7.246;2022-07-06T14:58:23;1.83;;;1.00;;
68050;SDS011;54839;51.364;7.246;2022-07-06T15:00:53;1.90;;;1.40;;
68050;SDS011;54839;51.364;7.246;2022-07-06T15:03:22;1.83;;;1.00;;
68050;SDS011;54839;51.364;7.246;2022-07-06T15:05:48;2.00;;;1.20;;